createdAt,value
2022-09-17T00:01:23.196Z,9.79
2022-09-17T00:04:04.487Z,9.63
2022-09-17T00:06:35.514Z,9.62
2022-09-17T00:09:07.690Z,9.75
2022-09-17T00:11:38.555Z,9.83
2022-09-17T00:14:09.172Z,9.81
2022-09-17T00:16:43.507Z,9.73
2022-09-17T00:19:22.794Z,9.66
2022-09-17T00:21:49.887Z,9.58
2022-09-17T00:24:18.252Z,9.66
2022-09-17T00:26:45.079Z,9.51
2022-09-17T00:29:12.071Z,9.46
2022-09-17T00:31:39.485Z,9.54
2022-09-17T00:34:07.415Z,9.62
2022-09-17T00:36:39.403Z,9.60
2022-09-17T00:39:08.956Z,9.62
2022-09-17T00:41:37.928Z,9.70
2022-09-17T00:44:40.134Z,9.72
2022-09-17T00:47:28.988Z,9.74
2022-09-17T00:50:17.345Z,9.78
2022-09-17T00:52:55.344Z,9.71
2022-09-17T00:55:28.687Z,9.79
2022-09-17T00:58:01.399Z,9.78
2022-09-17T01:00:31.954Z,9.76
2022-09-17T01:02:59.216Z,9.44
2022-09-17T01:05:42.244Z,9.36
2022-09-17T01:08:21.360Z,9.41
2022-09-17T01:11:29.687Z,9.46
2022-09-17T01:14:19.247Z,9.46
2022-09-17T01:17:15.549Z,9.55
2022-09-17T01:20:00.553Z,9.61
2022-09-17T01:22:42.788Z,9.58
2022-09-17T01:25:24.663Z,9.62
2022-09-17T01:28:22.539Z,9.57
2022-09-17T01:30:51.986Z,9.47
2022-09-17T01:33:52.592Z,9.56
2022-09-17T01:36:52.538Z,9.59
2022-09-17T01:40:00.491Z,9.58
2022-09-17T01:42:37.776Z,9.47
2022-09-17T01:45:49.642Z,9.56
2022-09-17T01:48:25.618Z,9.62
2022-09-17T01:50:58.843Z,9.50
2022-09-17T01:53:45.898Z,9.54
2022-09-17T01:56:19.923Z,9.54
2022-09-17T01:58:58.367Z,9.63
2022-09-17T02:01:31.186Z,9.68
2022-09-17T02:04:14.691Z,9.67
2022-09-17T02:06:51.627Z,9.71
2022-09-17T02:09:26.535Z,9.75
2022-09-17T02:11:59.958Z,9.80
2022-09-17T02:14:42.449Z,9.82
2022-09-17T02:17:22.498Z,9.83
2022-09-17T02:19:49.211Z,9.79
2022-09-17T02:22:32.058Z,9.74
2022-09-17T02:25:17.831Z,9.74
2022-09-17T02:28:23.329Z,9.61
2022-09-17T02:30:50.449Z,9.63
2022-09-17T02:33:20.333Z,9.68
2022-09-17T02:35:47.263Z,9.71
2022-09-17T02:38:13.891Z,9.74
2022-09-17T02:40:54.638Z,9.82
2022-09-17T02:43:37.970Z,9.79
2022-09-17T02:46:10.429Z,9.75
2022-09-17T02:49:46.209Z,9.78
2022-09-17T02:52:44.499Z,9.75
2022-09-17T02:55:35.546Z,9.82
2022-09-17T02:58:05.022Z,9.83
2022-09-17T03:00:32.190Z,9.87
2022-09-17T03:03:13.626Z,9.82
2022-09-17T03:05:43.729Z,9.67
2022-09-17T03:08:14.347Z,9.51
2022-09-17T03:10:41.199Z,9.61
2022-09-17T03:13:07.896Z,9.69
2022-09-17T03:15:34.361Z,9.62
2022-09-17T03:18:01.783Z,9.66
2022-09-17T03:20:28.270Z,9.62
2022-09-17T03:22:54.712Z,9.63
2022-09-17T03:25:21.158Z,9.57
2022-09-17T03:27:48.218Z,9.59
2022-09-17T03:30:14.739Z,9.66
2022-09-17T03:32:41.182Z,9.70
2022-09-17T03:35:08.120Z,9.64
2022-09-17T03:37:34.551Z,9.61
2022-09-17T03:40:01.219Z,9.60
2022-09-17T03:42:27.771Z,9.63
2022-09-17T03:44:54.194Z,9.62
2022-09-17T03:47:20.628Z,9.54
2022-09-17T03:49:47.113Z,9.53
2022-09-17T03:52:13.852Z,9.58
2022-09-17T03:54:40.287Z,9.64
2022-09-17T03:57:06.703Z,9.69
2022-09-17T03:59:33.168Z,9.71
2022-09-17T04:01:59.742Z,9.71
2022-09-17T04:04:26.293Z,9.65
2022-09-17T04:06:52.786Z,9.67
2022-09-17T04:09:19.263Z,9.70
2022-09-17T04:11:45.786Z,9.73
2022-09-17T04:14:12.231Z,9.80
2022-09-17T04:16:38.690Z,9.84
2022-09-17T04:19:05.243Z,9.76
2022-09-17T04:21:31.714Z,9.73
2022-09-17T04:23:58.259Z,9.77
2022-09-17T04:26:24.707Z,9.81
2022-09-17T04:28:51.160Z,9.80
2022-09-17T04:31:17.694Z,9.86
2022-09-17T04:33:44.183Z,9.84
2022-09-17T04:36:10.599Z,9.85
2022-09-17T04:38:37.078Z,9.88
2022-09-17T04:41:07.193Z,9.87
2022-09-17T04:43:34.113Z,9.89
2022-09-17T04:46:00.934Z,9.94
2022-09-17T04:48:27.371Z,9.93
2022-09-17T04:50:53.860Z,9.94
2022-09-17T04:53:20.290Z,9.88
2022-09-17T04:55:46.802Z,9.88
2022-09-17T04:58:13.487Z,9.85
2022-09-17T05:00:41.715Z,9.74
2022-09-17T05:03:08.571Z,9.74
2022-09-17T05:05:35.130Z,9.72
2022-09-17T05:08:01.940Z,9.70
2022-09-17T05:10:28.511Z,9.70
2022-09-17T05:12:56.775Z,9.69
2022-09-17T05:15:25.810Z,9.75
2022-09-17T05:17:52.559Z,9.74
2022-09-17T05:20:20.146Z,9.79
2022-09-17T05:22:52.018Z,9.72
2022-09-17T05:25:24.822Z,9.80
2022-09-17T05:27:53.355Z,9.77
2022-09-17T05:30:20.659Z,9.81
2022-09-17T05:32:47.305Z,9.82
2022-09-17T05:35:14.252Z,9.81
2022-09-17T05:37:40.980Z,9.78
2022-09-17T05:40:09.145Z,9.71
2022-09-17T05:42:35.928Z,9.74
2022-09-17T05:45:02.591Z,9.77
2022-09-17T05:47:29.761Z,9.77
2022-09-17T05:49:56.326Z,9.80
2022-09-17T05:52:26.184Z,9.83
2022-09-17T05:54:52.638Z,9.80
2022-09-17T05:57:20.364Z,9.82
2022-09-17T05:59:46.835Z,9.79
2022-09-17T06:02:14.077Z,9.74
2022-09-17T06:04:40.895Z,9.66
2022-09-17T06:07:09.021Z,9.69
2022-09-17T06:09:37.562Z,9.79
2022-09-17T06:12:07.166Z,9.85
2022-09-17T06:14:33.588Z,9.80
2022-09-17T06:17:00.288Z,9.79
2022-09-17T06:19:27.815Z,9.80
2022-09-17T06:21:54.751Z,9.87
2022-09-17T06:24:21.238Z,9.92
2022-09-17T06:26:47.675Z,10.00
2022-09-17T06:29:15.128Z,10.06
2022-09-17T06:31:44.737Z,10.11
2022-09-17T06:34:12.151Z,10.16
2022-09-17T06:36:38.825Z,10.12
2022-09-17T06:39:05.667Z,10.12
2022-09-17T06:41:32.986Z,10.16
2022-09-17T06:43:59.557Z,10.27
2022-09-17T06:46:26.571Z,10.35
2022-09-17T06:48:53.035Z,10.36
2022-09-17T06:51:19.595Z,10.35
2022-09-17T06:53:46.215Z,10.33
2022-09-17T06:56:12.859Z,10.35
2022-09-17T06:58:41.825Z,10.46
2022-09-17T07:01:11.331Z,10.49
2022-09-17T07:03:38.423Z,10.51
2022-09-17T07:06:12.362Z,10.56
2022-09-17T07:08:39.511Z,10.62
2022-09-17T07:11:06.593Z,10.60
2022-09-17T07:13:33.033Z,10.65
2022-09-17T07:16:02.295Z,10.68
2022-09-17T07:18:29.250Z,10.73
2022-09-17T07:20:58.530Z,10.76
2022-09-17T07:23:28.666Z,10.83
2022-09-17T07:25:59.603Z,10.91
2022-09-17T07:28:28.679Z,10.93
2022-09-17T07:30:56.296Z,10.97
2022-09-17T07:33:26.645Z,11.02
2022-09-17T07:35:58.979Z,11.18
2022-09-17T07:38:27.346Z,11.38
2022-09-17T07:41:03.658Z,11.50
2022-09-17T07:43:33.715Z,11.43
2022-09-17T07:46:03.792Z,11.53
2022-09-17T07:48:31.107Z,11.53
2022-09-17T07:50:58.314Z,11.52
2022-09-17T07:53:25.705Z,11.50
2022-09-17T07:55:58.466Z,11.44
2022-09-17T07:58:34.109Z,11.20
2022-09-17T08:01:09.182Z,11.19
2022-09-17T08:03:38.400Z,11.35
2022-09-17T08:06:14.580Z,11.27
2022-09-17T08:08:42.329Z,11.33
2022-09-17T08:11:23.696Z,11.16
2022-09-17T08:13:59.737Z,11.07
2022-09-17T08:16:26.475Z,11.06
2022-09-17T08:18:57.966Z,11.07
2022-09-17T08:21:24.914Z,11.10
2022-09-17T08:23:51.473Z,11.08
2022-09-17T08:26:22.656Z,10.92
2022-09-17T08:28:54.905Z,10.81
2022-09-17T08:31:23.926Z,10.81
2022-09-17T08:33:50.880Z,10.83
2022-09-17T08:36:21.043Z,10.86
2022-09-17T08:38:48.373Z,10.87
2022-09-17T08:41:33.579Z,10.72
2022-09-17T08:44:33.125Z,10.66
2022-09-17T08:47:13.813Z,10.84
2022-09-17T08:49:51.978Z,11.04
2022-09-17T08:52:40.100Z,11.09
2022-09-17T08:55:11.161Z,11.15
2022-09-17T08:57:47.627Z,11.09
2022-09-17T09:00:33.375Z,11.14
2022-09-17T09:03:30.655Z,11.12
2022-09-17T09:05:58.373Z,11.22
2022-09-17T09:08:56.885Z,11.31
2022-09-17T09:11:27.653Z,11.53
2022-09-17T09:14:10.656Z,11.52
2022-09-17T09:16:45.030Z,11.47
2022-09-17T09:19:29.080Z,11.30
2022-09-17T09:22:35.770Z,11.20
2022-09-17T09:25:36.906Z,10.92
2022-09-17T09:28:44.827Z,10.95
2022-09-17T09:31:38.176Z,10.86
2022-09-17T09:34:05.616Z,11.06
2022-09-17T09:36:33.693Z,11.05
2022-09-17T09:39:06.650Z,11.08
2022-09-17T09:41:54.128Z,11.10
2022-09-17T09:44:20.602Z,11.17
2022-09-17T09:47:07.889Z,11.27
2022-09-17T09:50:05.506Z,11.52
2022-09-17T09:52:50.751Z,11.38
2022-09-17T09:56:01.024Z,11.50
2022-09-17T09:58:38.856Z,11.54
2022-09-17T10:01:22.783Z,11.66
2022-09-17T10:03:53.922Z,11.83
2022-09-17T10:06:21.117Z,11.95
2022-09-17T10:08:50.860Z,11.97
2022-09-17T10:11:28.519Z,11.86
2022-09-17T10:14:25.383Z,11.80
2022-09-17T10:17:20.834Z,11.79
2022-09-17T10:20:19.429Z,11.78
2022-09-17T10:22:49.513Z,11.84
2022-09-17T10:25:22.249Z,11.78
2022-09-17T10:27:49.748Z,11.62
2022-09-17T10:30:18.889Z,11.66
2022-09-17T10:33:14.125Z,11.60
2022-09-17T10:35:40.580Z,11.55
2022-09-17T10:38:33.089Z,11.60
2022-09-17T10:41:22.500Z,11.70
2022-09-17T10:43:50.577Z,11.78
2022-09-17T10:46:35.306Z,11.79
2022-09-17T10:49:29.128Z,11.92
2022-09-17T10:52:27.010Z,12.11
2022-09-17T10:55:12.374Z,12.23
2022-09-17T10:58:05.875Z,12.26
2022-09-17T11:01:01.071Z,12.41
2022-09-17T11:03:51.390Z,12.42
2022-09-17T11:06:27.131Z,12.24
2022-09-17T11:09:27.996Z,12.38
2022-09-17T11:12:17.796Z,12.66
2022-09-17T11:15:01.484Z,12.70
2022-09-17T11:18:14.507Z,12.63
2022-09-17T11:21:30.632Z,12.52
2022-09-17T11:24:11.005Z,12.55
2022-09-17T11:27:08.728Z,12.74
2022-09-17T11:29:58.301Z,12.83
2022-09-17T11:32:57.015Z,12.78
2022-09-17T11:35:37.523Z,12.79
2022-09-17T11:38:27.487Z,12.99
2022-09-17T11:41:10.944Z,13.20
2022-09-17T11:43:48.457Z,13.31
2022-09-17T11:46:21.354Z,13.25
2022-09-17T11:49:13.641Z,12.99
2022-09-17T11:51:48.976Z,12.85
2022-09-17T11:54:25.323Z,12.83
2022-09-17T11:57:09.510Z,12.87
2022-09-17T11:59:56.399Z,12.93
2022-09-17T12:02:38.229Z,13.02
2022-09-17T12:05:15.100Z,12.95
2022-09-17T12:07:59.463Z,12.79
2022-09-17T12:10:41.662Z,12.80
2022-09-17T12:13:51.381Z,12.69
2022-09-17T12:16:50.611Z,12.40
2022-09-17T12:19:27.626Z,12.37
2022-09-17T12:22:01.972Z,12.30
2022-09-17T12:24:31.967Z,12.37
2022-09-17T12:27:52.878Z,12.34
2022-09-17T12:30:28.587Z,12.19
2022-09-17T12:33:34.720Z,12.14
2022-09-17T12:36:27.643Z,12.13
2022-09-17T12:39:25.044Z,12.41
2022-09-17T12:42:03.610Z,12.34
2022-09-17T12:45:03.864Z,12.15
2022-09-17T12:48:01.739Z,11.94
2022-09-17T12:50:59.053Z,11.93
2022-09-17T12:53:33.699Z,11.85
2022-09-17T12:56:29.622Z,11.82
2022-09-17T12:59:11.771Z,11.70
2022-09-17T13:02:00.377Z,11.44
2022-09-17T13:05:02.950Z,11.23
2022-09-17T13:08:16.284Z,11.06
2022-09-17T13:11:04.733Z,10.94
2022-09-17T13:13:58.854Z,10.94
2022-09-17T13:16:54.503Z,10.85
2022-09-17T13:19:39.765Z,10.93
2022-09-17T13:22:18.581Z,10.90
2022-09-17T13:24:48.932Z,11.09
2022-09-17T13:27:28.321Z,11.08
2022-09-17T13:29:54.657Z,11.06
2022-09-17T13:32:33.389Z,10.92
2022-09-17T13:35:11.567Z,10.83
2022-09-17T13:37:57.640Z,10.73
2022-09-17T13:40:37.356Z,10.77
2022-09-17T13:43:03.836Z,10.90
2022-09-17T13:45:33.721Z,10.91
2022-09-17T13:48:07.929Z,10.93
2022-09-17T13:50:40.460Z,11.01
2022-09-17T13:53:12.558Z,11.03
2022-09-17T13:55:54.647Z,11.00
2022-09-17T13:58:21.009Z,10.89
2022-09-17T14:01:11.603Z,10.72
2022-09-17T14:03:41.779Z,10.68
2022-09-17T14:06:08.514Z,10.67
2022-09-17T14:08:44.423Z,10.61
2022-09-17T14:11:23.334Z,10.60
2022-09-17T14:13:56.466Z,10.68
2022-09-17T14:16:29.214Z,10.76
2022-09-17T14:19:15.160Z,10.87
2022-09-17T14:22:02.657Z,10.78
2022-09-17T14:24:46.569Z,10.67
2022-09-17T14:27:46.024Z,10.56
2022-09-17T14:30:29.051Z,10.61
2022-09-17T14:33:01.440Z,10.58
2022-09-17T14:35:44.807Z,10.57
2022-09-17T14:38:16.881Z,10.66
2022-09-17T14:40:47.381Z,10.78
2022-09-17T14:43:38.557Z,10.89
2022-09-17T14:46:14.864Z,10.94
2022-09-17T14:48:41.407Z,10.84
2022-09-17T14:51:19.686Z,10.80
2022-09-17T14:53:49.403Z,10.90
2022-09-17T14:56:22.410Z,11.10
2022-09-17T14:58:53.217Z,11.20
2022-09-17T15:01:29.138Z,11.26
2022-09-17T15:04:25.592Z,11.16
2022-09-17T15:06:52.436Z,11.18
2022-09-17T15:09:27.750Z,11.38
2022-09-17T15:11:59.983Z,11.50
2022-09-17T15:14:36.628Z,11.51
2022-09-17T15:17:04.509Z,11.12
2022-09-17T15:19:40.237Z,10.89
2022-09-17T15:22:20.578Z,10.27
2022-09-17T15:25:01.970Z,10.01
2022-09-17T15:27:35.704Z,10.00
2022-09-17T15:30:16.019Z,10.10
2022-09-17T15:32:55.707Z,10.21
2022-09-17T15:35:30.049Z,10.30
2022-09-17T15:38:21.618Z,10.42
2022-09-17T15:40:47.735Z,10.56
2022-09-17T15:43:25.196Z,10.40
2022-09-17T15:45:51.669Z,10.44
2022-09-17T15:48:36.949Z,10.44
2022-09-17T15:51:07.035Z,10.45
2022-09-17T15:53:35.718Z,10.45
2022-09-17T15:56:13.055Z,10.40
2022-09-17T15:58:42.179Z,10.29
2022-09-17T16:01:11.894Z,10.23
2022-09-17T16:03:38.262Z,10.19
2022-09-17T16:06:27.557Z,10.05
2022-09-17T16:08:57.570Z,10.04
2022-09-17T16:11:32.126Z,10.01
2022-09-17T16:14:00.987Z,10.02
2022-09-17T16:16:38.150Z,9.96
2022-09-17T16:19:06.654Z,10.05
2022-09-17T16:21:33.334Z,10.08
2022-09-17T16:23:59.786Z,10.10
2022-09-17T16:26:31.339Z,10.10
2022-09-17T16:29:07.628Z,10.07
2022-09-17T16:31:34.570Z,9.96
2022-09-17T16:34:01.231Z,9.88
2022-09-17T16:36:30.899Z,9.86
2022-09-17T16:38:58.287Z,9.86
2022-09-17T16:41:24.744Z,9.90
2022-09-17T16:43:51.162Z,9.85
2022-09-17T16:46:17.638Z,9.84
2022-09-17T16:48:46.229Z,9.82
2022-09-17T16:51:14.123Z,9.72
2022-09-17T16:53:41.025Z,9.71
2022-09-17T16:56:14.263Z,9.67
2022-09-17T16:58:41.635Z,9.66
2022-09-17T17:01:10.785Z,9.69
2022-09-17T17:03:37.299Z,9.60
2022-09-17T17:06:04.354Z,9.62
2022-09-17T17:08:34.409Z,9.64
2022-09-17T17:11:01.507Z,9.64
2022-09-17T17:13:28.171Z,9.64
2022-09-17T17:15:55.225Z,9.61
2022-09-17T17:18:22.803Z,9.62
2022-09-17T17:20:49.340Z,9.60
2022-09-17T17:23:16.636Z,9.64
2022-09-17T17:25:43.141Z,9.62
2022-09-17T17:28:09.998Z,9.58
2022-09-17T17:30:37.466Z,9.57
2022-09-17T17:33:04.050Z,9.64
2022-09-17T17:35:30.687Z,9.67
2022-09-17T17:37:57.130Z,9.67
2022-09-17T17:40:23.976Z,9.57
2022-09-17T17:42:54.207Z,9.52
2022-09-17T17:45:20.719Z,9.45
2022-09-17T17:47:47.509Z,9.39
2022-09-17T17:50:15.702Z,9.39
2022-09-17T17:52:47.607Z,9.40
2022-09-17T17:55:16.226Z,9.46
2022-09-17T17:57:42.698Z,9.50
2022-09-17T18:00:11.776Z,9.57
2022-09-17T18:02:38.441Z,9.65
2022-09-17T18:05:05.455Z,9.49
2022-09-17T18:07:32.025Z,9.38
2022-09-17T18:09:58.553Z,9.37
2022-09-17T18:12:26.966Z,9.32
2022-09-17T18:14:53.838Z,9.22
2022-09-17T18:17:20.656Z,9.17
2022-09-17T18:19:47.091Z,9.18
2022-09-17T18:22:14.090Z,9.24
2022-09-17T18:24:40.536Z,9.19
2022-09-17T18:27:07.080Z,9.16
2022-09-17T18:29:33.535Z,9.12
2022-09-17T18:32:00.162Z,9.06
2022-09-17T18:34:26.706Z,9.07
2022-09-17T18:36:53.203Z,9.03
2022-09-17T18:39:57.073Z,8.96
2022-09-17T18:42:08.730Z,8.86
2022-09-17T18:44:35.171Z,8.81
2022-09-17T18:47:01.954Z,8.77
2022-09-17T18:49:28.660Z,8.71
2022-09-17T18:51:55.396Z,8.66
2022-09-17T18:54:21.862Z,8.62
2022-09-17T18:56:48.444Z,8.64
2022-09-17T18:59:14.920Z,8.60
2022-09-17T19:01:41.438Z,8.64
2022-09-17T19:04:08.304Z,8.59
2022-09-17T19:06:35.843Z,8.51
2022-09-17T19:09:04.594Z,8.48
2022-09-17T19:11:31.118Z,8.44
2022-09-17T19:13:58.074Z,8.46
2022-09-17T19:16:24.935Z,8.39
2022-09-17T19:18:51.650Z,8.49
2022-09-17T19:21:23.380Z,8.58
2022-09-17T19:23:52.422Z,8.56
2022-09-17T19:26:22.443Z,8.57
2022-09-17T19:28:53.663Z,8.61
2022-09-17T19:31:20.916Z,8.63
2022-09-17T19:33:47.661Z,8.60
2022-09-17T19:36:17.455Z,8.59
2022-09-17T19:38:45.306Z,8.56
2022-09-17T19:41:19.329Z,8.61
2022-09-17T19:43:47.025Z,8.56
2022-09-17T19:46:18.006Z,8.51
2022-09-17T19:48:51.543Z,8.53
2022-09-17T19:51:19.756Z,8.52
2022-09-17T19:53:46.569Z,8.55
2022-09-17T19:56:17.647Z,8.61
2022-09-17T19:58:44.495Z,8.67
2022-09-17T20:01:12.234Z,8.62
2022-09-17T20:03:40.942Z,8.43
2022-09-17T20:06:11.461Z,8.35
2022-09-17T20:08:47.024Z,8.34
2022-09-17T20:11:16.300Z,8.45
2022-09-17T20:13:43.317Z,8.52
2022-09-17T20:16:12.446Z,8.61
2022-09-17T20:18:39.606Z,8.55
2022-09-17T20:21:11.667Z,8.63
2022-09-17T20:23:38.917Z,8.70
2022-09-17T20:26:06.383Z,8.64
2022-09-17T20:28:34.024Z,8.61
2022-09-17T20:31:12.531Z,8.65
2022-09-17T20:33:39.482Z,8.73
2022-09-17T20:36:11.800Z,8.75
2022-09-17T20:41:27.327Z,8.74
2022-09-17T20:43:54.599Z,8.77
2022-09-17T20:46:28.642Z,8.81
2022-09-17T20:48:58.021Z,8.91
2022-09-17T20:51:29.003Z,8.98
2022-09-17T20:53:57.199Z,9.00
2022-09-17T20:56:27.973Z,9.01
2022-09-17T20:59:04.080Z,9.05
2022-09-17T21:01:34.284Z,9.10
2022-09-17T21:04:02.139Z,9.18
2022-09-17T21:06:32.131Z,9.16
2022-09-17T21:09:00.031Z,9.11
2022-09-17T21:11:27.820Z,9.17
2022-09-17T21:13:54.307Z,9.26
2022-09-17T21:16:21.068Z,9.34
2022-09-17T21:18:47.975Z,9.33
2022-09-17T21:21:17.889Z,9.36
2022-09-17T21:23:44.851Z,9.32
2022-09-17T21:26:18.136Z,9.31
2022-09-17T21:28:48.134Z,9.36
2022-09-17T21:31:21.196Z,9.39
2022-09-17T21:33:53.062Z,9.32
2022-09-17T21:36:22.414Z,9.29
2022-09-17T21:38:57.678Z,9.26
2022-09-17T21:41:25.847Z,9.34
2022-09-17T21:43:53.365Z,9.36
2022-09-17T21:46:28.408Z,9.34
2022-09-17T21:49:02.285Z,9.33
2022-09-17T21:51:36.315Z,9.32
2022-09-17T21:54:08.229Z,9.32
2022-09-17T21:56:35.237Z,9.33
2022-09-17T21:59:05.960Z,9.24
2022-09-17T22:01:42.244Z,9.22
2022-09-17T22:04:12.943Z,9.23
2022-09-17T22:06:40.999Z,9.19
2022-09-17T22:09:14.431Z,9.18
2022-09-17T22:11:41.035Z,9.12
2022-09-17T22:14:14.579Z,9.04
2022-09-17T22:16:44.683Z,9.06
2022-09-17T22:19:14.770Z,9.13
2022-09-17T22:21:46.458Z,9.19
2022-09-17T22:24:15.510Z,9.26
2022-09-17T22:26:46.803Z,9.14
2022-09-17T22:29:20.378Z,9.04
2022-09-17T22:31:48.143Z,9.08
2022-09-17T22:34:19.713Z,9.11
2022-09-17T22:36:46.579Z,9.19
2022-09-17T22:39:13.145Z,9.23
2022-09-17T22:41:45.564Z,9.14
2022-09-17T22:44:17.675Z,9.14
2022-09-17T22:46:46.832Z,9.20
2022-09-17T22:49:14.087Z,9.25
2022-09-17T22:51:41.754Z,9.30
2022-09-17T22:54:12.192Z,9.35
2022-09-17T22:56:39.884Z,9.38
2022-09-17T22:59:07.281Z,9.41
2022-09-17T23:01:36.228Z,9.43
2022-09-17T23:04:04.288Z,9.40
2022-09-17T23:06:34.991Z,9.41
2022-09-17T23:09:01.919Z,9.31
2022-09-17T23:11:32.501Z,9.27
2022-09-17T23:14:02.793Z,9.25
2022-09-17T23:16:35.465Z,9.29
2022-09-17T23:19:01.942Z,9.37
2022-09-17T23:21:28.418Z,9.42
2022-09-17T23:23:54.886Z,9.47
2022-09-17T23:26:25.307Z,9.47
2022-09-17T23:28:53.056Z,9.51
2022-09-17T23:31:23.739Z,9.54
2022-09-17T23:33:51.911Z,9.53
2022-09-17T23:36:23.393Z,9.51
2022-09-17T23:38:51.119Z,9.50
2022-09-17T23:41:20.816Z,9.49
2022-09-17T23:43:53.791Z,9.56
2022-09-17T23:46:22.717Z,9.58
2022-09-17T23:48:51.124Z,9.62
2022-09-17T23:51:17.915Z,9.58
2022-09-17T23:53:44.638Z,9.58
2022-09-17T23:56:21.911Z,9.60
2022-09-17T23:58:49.993Z,9.61
